Sheridan, MO (64486)

8:53 PM CDT on September 30, 2016 (GMT -0500)
Bedison MO | | Change Station

Elev 1033 ft 40.31 °N, 94.80 °W | Updated 49 seconds ago

Overcast
Overcast
55.5 °F
Feels Like 55.5 °F
N
0.0
Wind Variable Wind from NNE
Gusts 12.0 mph

Today
High -- | Low -- °F
--% Chance of Precip.
Yesterday
High -- | Low -- °F
Precip. -- in
Pressure 30.16 in
Visibility 10.0 miles
Clouds Overcast 3100 ft
Dew Point 53 °F
Humidity 92%
Rainfall 0.00 in
Snow Depth Not available.
7:14 AM 7:01 PM
New Moon, 0% visible
METAR KLWD 010053Z AUTO 01006KT 10SM OVC031 16/13 A3016 RMK AO2 SLP213 T01610128
Pressure 30.16 in
Visibility 10.0 miles
Clouds Overcast 3100 ft
Dew Point 53 °F
Humidity 92%
Rainfall 0.00 in
Snow Depth Not available.
7:14 AM 7:01 PM
New Moon, 0% visible
METAR KLWD 010053Z AUTO 01006KT 10SM OVC031 16/13 A3016 RMK AO2 SLP213 T01610128

10-Day Weather Forecast

Almanac

Astronomy

Sep. 30, 2016 Rise Set
Actual Time
Civil Twilight
Nautical Twilight
Astronomical Twilight
Moon
Length of Visible Light
Length of Day
Tomorrow will be .
, % of the Moon is Illuminated

Today's Extremes

State Highs State Lows

Community

WunderPhotos

Upload Photos

1,942,837 photos uploaded!

WunderBlog® & News

Nearby

Air Quality

  Air Quality AQ Index Pollutant
Not available.

Snow Depth

Station Depth Elevation

Earthquake Activity

City Distance Mag. Time & Date
Minimum magnitude displayed is 2.5.

Coastal Water Temperatures

Place Temperature

Stations

Nearby Weather Stations

Station Location Temp. Windchill Dew Point Humidity Wind Precip. Elev Updated Type
                   

Watches & Warnings

There are currently no watches in effect.